Hub


Voltar

 INFORMAÇÕES METEOROLÓGICAS

METAR FOR SBJR


ADDS - METARS form results

(2016 UTC 17 January 2019)
Data provider http://aviationweather.gov/metar/data/
 
METAR text: SBJR 172000Z 18005KT 9999 FEW025 32/23 Q1010
Conditions at: SBJR (RIO/JACAREPAGUA , BR) observed 2000 UTC 17 January 2019
Temperature: 32.0°C (90°F)
Dewpoint: 23.0°C (73°F) [RH = 59%]
Pressure (altimeter): 29.82 inches Hg (1010.0 mb)
Winds: from the S (180 degrees) at 6 MPH (5 knots; 2.6 m/s)
Visibility: 6 or more miles (10+ km)
Ceiling: at least 12,000 feet AGL
Clouds: few clouds at 2500 feet AGL
Weather: no significant weather observed at this time


 MAPA DO AEROPORTO


 INFORMAÇÕES DA PISTA

Pista 2 Tamanho da pista 2953 ft Largura da pista 98 ft
Elevação da pista 0 ft Ranhura da pista 0 ft Proa da pista 0
Pista 20 Tamanho da pista 2953 ft Largura da pista 98 ft
Elevação da pista 0 ft Ranhura da pista 0 ft Proa da pista 0

 FREQUÊNCIAS DO AEROPORTO


 AUXÍLIOS DE NAVEGAÇÃO PRÓXIMOS AO AEROPORTO

Tipo NDB Nome Jacarepagua Frequência 205 KHZ